createdAt,value
2022-08-05T00:02:07.984Z,4.03
2022-08-05T00:04:37.776Z,4.40
2022-08-05T00:07:27.308Z,4.90
2022-08-05T00:09:52.790Z,4.25
2022-08-05T00:12:20.849Z,3.90
2022-08-05T00:14:48.247Z,3.97
2022-08-05T00:17:19.342Z,5.13
2022-08-05T00:20:01.991Z,4.15
2022-08-05T00:22:29.096Z,3.63
2022-08-05T00:24:57.161Z,4.53
2022-08-05T00:27:28.393Z,4.47
2022-08-05T00:30:03.245Z,3.92
2022-08-05T00:32:29.725Z,4.32
2022-08-05T00:35:06.804Z,4.00
2022-08-05T00:37:35.720Z,4.07
2022-08-05T00:40:28.002Z,4.25
2022-08-05T00:42:55.149Z,4.10
2022-08-05T00:45:28.382Z,4.35
2022-08-05T00:48:06.095Z,4.55
2022-08-05T00:50:33.226Z,4.05
2022-08-05T00:52:59.459Z,4.05
2022-08-05T00:55:34.122Z,4.47
2022-08-05T00:58:11.348Z,3.53
2022-08-05T01:00:37.794Z,3.80
2022-08-05T01:03:07.643Z,6.32
2022-08-05T01:05:34.359Z,4.90
2022-08-05T01:08:42.574Z,4.78
2022-08-05T01:10:52.384Z,4.22
2022-08-05T01:13:19.499Z,4.55
2022-08-05T01:15:48.581Z,4.72
2022-08-05T01:18:14.795Z,4.68
2022-08-05T01:20:41.956Z,4.45
2022-08-05T01:23:14.409Z,4.75
2022-08-05T01:25:41.766Z,4.43
2022-08-05T01:28:08.741Z,4.95
2022-08-05T01:30:35.282Z,4.82
2022-08-05T01:33:01.540Z,4.88
2022-08-05T01:35:51.722Z,4.82
2022-08-05T01:38:24.806Z,4.95
2022-08-05T01:40:53.934Z,4.80
2022-08-05T01:43:22.336Z,5.18
2022-08-05T01:45:56.071Z,4.25
2022-08-05T01:48:23.102Z,4.47
2022-08-05T01:50:51.046Z,5.00
2022-08-05T01:53:17.594Z,4.35
2022-08-05T01:56:04.462Z,4.82
2022-08-05T01:58:45.120Z,4.90
2022-08-05T02:01:11.721Z,5.57
2022-08-05T02:03:37.973Z,5.45
2022-08-05T02:06:33.623Z,5.38
2022-08-05T02:08:58.425Z,6.30
2022-08-05T02:11:33.099Z,5.03
2022-08-05T02:14:00.137Z,5.13
2022-08-05T02:16:27.898Z,5.88
2022-08-05T02:18:54.928Z,6.13
2022-08-05T02:21:21.687Z,5.60
2022-08-05T02:23:48.436Z,5.00
2022-08-05T02:26:14.876Z,5.75
2022-08-05T02:28:45.684Z,5.50
2022-08-05T02:31:14.627Z,5.33
2022-08-05T02:33:41.178Z,4.73
2022-08-05T02:36:09.307Z,5.20
2022-08-05T02:38:35.785Z,5.53
2022-08-05T02:41:14.621Z,5.18
2022-08-05T02:44:02.359Z,6.43
2022-08-05T02:46:30.355Z,6.35
2022-08-05T02:48:56.645Z,6.07
2022-08-05T02:51:28.144Z,6.78
2022-08-05T02:54:09.069Z,7.03
2022-08-05T02:56:55.308Z,5.53
2022-08-05T02:59:22.207Z,5.97
2022-08-05T03:01:53.496Z,5.50
2022-08-05T03:04:19.748Z,6.95
2022-08-05T03:09:36.315Z,7.70
2022-08-05T03:12:04.151Z,6.20
2022-08-05T03:14:30.365Z,6.50
2022-08-05T03:16:56.906Z,8.00
2022-08-05T03:19:34.661Z,6.78
2022-08-05T03:22:04.647Z,7.43
2022-08-05T03:24:31.387Z,7.17
2022-08-05T03:26:59.981Z,6.40
2022-08-05T03:29:44.606Z,6.13
2022-08-05T03:32:12.355Z,5.82
2022-08-05T03:34:40.739Z,6.72
2022-08-05T03:37:06.969Z,7.20
2022-08-05T03:39:38.109Z,6.00
2022-08-05T03:42:13.555Z,7.13
2022-08-05T03:44:42.305Z,7.45
2022-08-05T03:47:08.536Z,7.25
2022-08-05T03:49:51.566Z,6.40
2022-08-05T03:52:38.088Z,6.43
2022-08-05T03:56:01.993Z,6.18
2022-08-05T03:57:50.949Z,6.68
2022-08-05T04:00:17.204Z,5.32
2022-08-05T04:02:52.019Z,6.45
2022-08-05T04:05:24.480Z,7.43
2022-08-05T04:10:25.257Z,8.00
2022-08-05T04:12:54.226Z,10.65
2022-08-05T04:15:21.068Z,6.80
2022-08-05T04:20:23.680Z,6.28
2022-08-05T04:22:49.914Z,6.07
2022-08-05T04:25:16.784Z,6.05
2022-08-05T04:27:57.409Z,6.25
2022-08-05T04:30:26.566Z,6.85
2022-08-05T04:32:52.945Z,7.47
2022-08-05T04:35:19.684Z,8.45
2022-08-05T04:38:02.424Z,6.22
2022-08-05T04:40:32.456Z,7.05
2022-08-05T04:42:58.739Z,7.15
2022-08-05T04:45:47.766Z,6.13
2022-08-05T04:48:18.519Z,7.50
2022-08-05T04:51:02.654Z,6.57
2022-08-05T04:53:29.392Z,6.50
2022-08-05T04:56:14.875Z,6.55
2022-08-05T04:58:46.169Z,6.30
2022-08-05T05:01:13.253Z,6.63
2022-08-05T05:03:42.094Z,5.65
2022-08-05T05:06:40.723Z,6.22
2022-08-05T05:08:55.228Z,6.68
2022-08-05T05:11:21.709Z,6.22
2022-08-05T05:14:08.717Z,5.75
2022-08-05T05:16:42.482Z,5.85
2022-08-05T05:19:19.329Z,5.55
2022-08-05T05:21:49.651Z,5.80
2022-08-05T05:24:21.935Z,5.70
2022-08-05T05:26:48.162Z,5.60
2022-08-05T05:29:18.228Z,5.57
2022-08-05T05:31:46.549Z,5.13
2022-08-05T05:34:12.878Z,4.82
2022-08-05T05:36:41.813Z,4.80
2022-08-05T05:39:09.470Z,5.40
2022-08-05T05:41:40.327Z,5.90
2022-08-05T05:44:15.709Z,6.05
2022-08-05T05:46:54.062Z,5.43
2022-08-05T05:49:23.296Z,6.10
2022-08-05T05:51:50.685Z,6.97
2022-08-05T05:54:17.165Z,6.07
2022-08-05T05:56:43.453Z,4.80
2022-08-05T05:59:09.717Z,5.85
2022-08-05T06:01:37.506Z,4.68
2022-08-05T06:04:04.875Z,5.20
2022-08-05T06:06:33.181Z,4.93
2022-08-05T06:09:01.124Z,5.32
2022-08-05T06:11:28.822Z,5.93
2022-08-05T06:13:55.553Z,5.72
2022-08-05T06:16:28.928Z,5.30
2022-08-05T06:19:00.034Z,5.00
2022-08-05T06:21:37.237Z,4.82
2022-08-05T06:24:04.230Z,5.13
2022-08-05T06:26:31.856Z,5.03
2022-08-05T06:29:00.247Z,5.55
2022-08-05T06:34:07.650Z,4.72
2022-08-05T06:36:56.778Z,4.47
2022-08-05T06:39:21.734Z,6.00
2022-08-05T06:41:48.380Z,5.47
2022-08-05T06:44:14.845Z,5.95
2022-08-05T06:46:41.663Z,4.57
2022-08-05T06:49:08.818Z,4.07
2022-08-05T06:51:40.783Z,3.97
2022-08-05T06:54:07.235Z,4.05
2022-08-05T06:56:35.140Z,3.33
2022-08-05T06:59:01.594Z,3.60
2022-08-05T07:01:32.340Z,4.03
2022-08-05T07:03:59.184Z,4.40
2022-08-05T07:06:25.672Z,3.95
2022-08-05T07:08:55.114Z,3.50
2022-08-05T07:11:22.553Z,3.78
2022-08-05T07:13:58.681Z,2.83
2022-08-05T07:17:56.999Z,3.50
2022-08-05T07:19:16.025Z,3.22
2022-08-05T07:22:01.149Z,2.90
2022-08-05T07:24:28.942Z,3.50
2022-08-05T07:26:56.485Z,2.75
2022-08-05T07:29:25.381Z,3.22
2022-08-05T07:32:09.128Z,2.42
2022-08-05T07:34:40.472Z,3.55
2022-08-05T07:37:08.476Z,4.00
2022-08-05T07:40:26.360Z,2.92
2022-08-05T07:42:31.699Z,3.63
2022-08-05T07:45:00.477Z,2.33
2022-08-05T07:47:26.847Z,3.25
2022-08-05T07:49:54.486Z,3.08
2022-08-05T07:52:21.362Z,3.42
2022-08-05T07:54:50.228Z,3.88
2022-08-05T07:57:55.155Z,4.13
2022-08-05T08:00:05.641Z,2.75
2022-08-05T08:03:15.375Z,2.72
2022-08-05T08:05:24.065Z,3.08
2022-08-05T08:08:00.201Z,2.70
2022-08-05T08:10:27.103Z,2.97
2022-08-05T08:12:53.374Z,2.13
2022-08-05T08:15:37.441Z,2.70
2022-08-05T08:18:09.738Z,3.25
2022-08-05T08:21:00.162Z,2.55
2022-08-05T08:24:02.165Z,2.25
2022-08-05T08:26:13.413Z,2.13
2022-08-05T08:28:55.164Z,3.63
2022-08-05T08:31:27.014Z,2.20
2022-08-05T08:33:53.488Z,3.33
2022-08-05T08:36:38.708Z,2.30
2022-08-05T08:39:06.107Z,2.30
2022-08-05T08:41:50.921Z,3.35
2022-08-05T08:45:22.491Z,2.50
2022-08-05T08:47:47.514Z,1.85
2022-08-05T08:50:22.322Z,2.50
2022-08-05T08:52:38.034Z,2.88
2022-08-05T08:55:04.263Z,3.13
2022-08-05T08:57:48.335Z,2.20
2022-08-05T09:00:24.282Z,2.97
2022-08-05T09:02:52.555Z,2.50
2022-08-05T09:05:18.920Z,2.75
2022-08-05T09:08:05.193Z,2.38
2022-08-05T09:10:31.483Z,1.70
2022-08-05T09:13:04.942Z,2.58
2022-08-05T09:15:31.583Z,3.22
2022-08-05T09:18:03.354Z,2.53
2022-08-05T09:20:37.451Z,2.22
2022-08-05T09:23:05.304Z,3.17
2022-08-05T09:26:01.064Z,2.30
2022-08-05T09:28:20.997Z,2.50
2022-08-05T09:30:47.552Z,2.50
2022-08-05T09:33:17.166Z,2.70
2022-08-05T09:35:43.514Z,3.00
2022-08-05T09:38:16.620Z,2.08
2022-08-05T09:40:52.386Z,3.45
2022-08-05T09:43:19.793Z,2.40
2022-08-05T09:46:07.169Z,2.20
2022-08-05T09:48:32.850Z,2.25
2022-08-05T09:50:59.285Z,2.83
2022-08-05T09:53:54.763Z,2.10
2022-08-05T09:56:14.122Z,2.50
2022-08-05T09:58:41.811Z,1.92
2022-08-05T10:01:15.254Z,2.78
2022-08-05T10:03:56.826Z,2.33
2022-08-05T10:06:26.012Z,2.38
2022-08-05T10:08:54.087Z,1.83
2022-08-05T10:11:21.905Z,3.13
2022-08-05T10:13:49.500Z,2.30
2022-08-05T10:16:20.813Z,3.33
2022-08-05T10:18:48.114Z,2.55
2022-08-05T10:21:16.292Z,2.78
2022-08-05T10:23:59.107Z,2.45
2022-08-05T10:26:32.541Z,2.78
2022-08-05T10:29:00.292Z,2.90
2022-08-05T10:32:53.997Z,2.75
2022-08-05T10:34:13.991Z,2.22
2022-08-05T10:36:40.637Z,2.08
2022-08-05T10:39:11.658Z,3.15
2022-08-05T10:41:46.620Z,2.30
2022-08-05T10:44:13.676Z,2.63
2022-08-05T10:46:40.654Z,2.85
2022-08-05T10:49:10.075Z,1.60
2022-08-05T10:51:36.885Z,2.40
2022-08-05T10:54:29.943Z,2.40
2022-08-05T10:56:59.025Z,2.10
2022-08-05T11:00:02.878Z,2.17
2022-08-05T11:02:14.217Z,2.35
2022-08-05T11:04:58.483Z,2.53
2022-08-05T11:07:33.097Z,2.53
2022-08-05T11:10:12.767Z,2.35
2022-08-05T11:12:41.288Z,3.55
2022-08-05T11:15:19.026Z,2.53
2022-08-05T11:17:57.725Z,3.55
2022-08-05T11:20:27.265Z,2.72
2022-08-05T11:22:58.050Z,2.45
2022-08-05T11:26:04.215Z,2.05
2022-08-05T11:28:17.291Z,2.92
2022-08-05T11:30:43.881Z,1.83
2022-08-05T11:33:19.749Z,2.13
2022-08-05T11:36:08.042Z,2.95
2022-08-05T11:38:45.211Z,2.20
2022-08-05T11:41:34.329Z,2.47
2022-08-05T11:44:06.621Z,2.30
2022-08-05T11:46:34.335Z,2.60
2022-08-05T11:49:01.327Z,2.97
2022-08-05T11:51:44.014Z,3.55
2022-08-05T11:54:14.227Z,3.20
2022-08-05T11:56:41.288Z,3.40
2022-08-05T11:59:13.846Z,3.30
2022-08-05T12:01:40.462Z,2.28
2022-08-05T12:04:06.718Z,3.17
2022-08-05T12:06:32.948Z,3.10
2022-08-05T12:08:59.557Z,2.60
2022-08-05T12:11:28.252Z,2.45
2022-08-05T12:14:06.428Z,3.30
2022-08-05T12:16:33.573Z,2.70
2022-08-05T12:19:04.963Z,2.40
2022-08-05T12:21:39.165Z,2.20
2022-08-05T12:24:07.063Z,3.20
2022-08-05T12:26:33.786Z,2.50
2022-08-05T12:29:01.482Z,2.33
2022-08-05T12:31:40.657Z,2.75
2022-08-05T12:34:14.649Z,2.97
2022-08-05T12:36:48.100Z,2.58
2022-08-05T12:39:14.521Z,2.72
2022-08-05T12:41:43.731Z,2.45
2022-08-05T12:44:11.625Z,2.92
2022-08-05T12:46:40.913Z,2.63
2022-08-05T12:49:13.566Z,2.92
2022-08-05T12:52:12.660Z,2.50
2022-08-05T12:54:26.851Z,3.08
2022-08-05T12:56:53.156Z,3.45
2022-08-05T12:59:21.082Z,3.72
2022-08-05T13:02:02.133Z,2.80
2022-08-05T13:04:32.885Z,3.95
2022-08-05T13:06:59.471Z,4.07
2022-08-05T13:09:27.878Z,3.88
2022-08-05T13:12:01.661Z,4.32
2022-08-05T13:14:36.128Z,4.40
2022-08-05T13:17:03.073Z,4.30
2022-08-05T13:19:51.710Z,3.88
2022-08-05T13:22:27.712Z,3.83
2022-08-05T13:27:38.402Z,4.32
2022-08-05T13:30:33.774Z,4.65
2022-08-05T13:32:51.392Z,3.75
2022-08-05T13:35:22.108Z,4.70
2022-08-05T13:37:55.352Z,2.40
2022-08-05T13:40:36.519Z,2.47
2022-08-05T13:43:12.088Z,2.33
2022-08-05T13:45:43.193Z,1.80
2022-08-05T13:48:57.793Z,2.67
2022-08-05T13:50:55.986Z,2.33
2022-08-05T13:53:22.498Z,2.40
2022-08-05T13:55:57.608Z,2.63
2022-08-05T13:58:31.023Z,2.63
2022-08-05T14:00:57.451Z,3.35
2022-08-05T14:03:24.132Z,3.00
2022-08-05T14:06:25.986Z,3.10
2022-08-05T14:08:37.008Z,3.97
2022-08-05T14:11:20.185Z,2.70
2022-08-05T14:13:48.134Z,2.58
2022-08-05T14:16:16.614Z,2.92
2022-08-05T14:18:43.670Z,2.53
2022-08-05T14:22:07.280Z,2.60
2022-08-05T14:23:56.497Z,3.80
2022-08-05T14:26:37.013Z,2.67
2022-08-05T14:29:11.892Z,2.92
2022-08-05T14:32:03.971Z,2.35
2022-08-05T14:34:29.651Z,3.17
2022-08-05T14:37:01.931Z,2.97
2022-08-05T14:39:30.612Z,2.47
2022-08-05T14:42:19.497Z,2.63
2022-08-05T14:44:48.071Z,3.22
2022-08-05T14:47:14.557Z,2.70
2022-08-05T14:49:59.610Z,2.22
2022-08-05T14:52:51.914Z,2.53
2022-08-05T14:55:15.421Z,3.00
2022-08-05T14:57:54.508Z,2.58
2022-08-05T15:00:28.056Z,2.38
2022-08-05T15:02:55.957Z,3.42
2022-08-05T15:05:22.457Z,2.35
2022-08-05T15:08:12.140Z,2.72
2022-08-05T15:10:43.199Z,2.47
2022-08-05T15:13:12.577Z,3.50
2022-08-05T15:15:54.452Z,3.50
2022-08-05T15:18:22.571Z,2.88
2022-08-05T15:20:49.523Z,3.30
2022-08-05T15:23:15.865Z,3.40
2022-08-05T15:25:51.888Z,3.83
2022-08-05T15:28:20.368Z,3.05
2022-08-05T15:30:53.031Z,2.95
2022-08-05T15:34:04.084Z,2.75
2022-08-05T15:36:06.115Z,3.75
2022-08-05T15:38:43.818Z,3.33
2022-08-05T15:41:22.228Z,2.90
2022-08-05T15:43:49.986Z,3.70
2022-08-05T15:46:16.384Z,3.75
2022-08-05T15:48:52.713Z,4.00
2022-08-05T15:51:24.199Z,3.45
2022-08-05T15:54:10.455Z,3.38
2022-08-05T15:56:41.679Z,3.20
2022-08-05T15:59:07.905Z,3.38
2022-08-05T16:01:39.898Z,3.95
2022-08-05T16:04:19.492Z,3.33
2022-08-05T16:06:45.891Z,3.70
2022-08-05T16:09:12.254Z,4.15
2022-08-05T16:11:43.480Z,4.20
2022-08-05T16:14:10.033Z,5.18
2022-08-05T16:16:43.841Z,4.85
2022-08-05T16:19:12.527Z,3.95
2022-08-05T16:22:00.484Z,3.28
2022-08-05T16:24:39.600Z,4.10
2022-08-05T16:27:07.515Z,4.57
2022-08-05T16:29:37.023Z,4.18
2022-08-05T16:32:04.178Z,4.13
2022-08-05T16:34:30.989Z,4.15
2022-08-05T16:36:57.341Z,3.47
2022-08-05T16:40:05.281Z,3.55
2022-08-05T16:42:15.253Z,3.40
2022-08-05T16:44:44.344Z,4.13
2022-08-05T16:47:28.812Z,3.58
2022-08-05T16:50:02.331Z,4.30
2022-08-05T16:52:32.729Z,3.53
2022-08-05T16:55:00.168Z,3.40
2022-08-05T16:57:39.925Z,4.18
2022-08-05T17:00:14.083Z,3.30
2022-08-05T17:02:40.566Z,4.88
2022-08-05T17:05:06.948Z,4.22
2022-08-05T17:07:43.626Z,5.32
2022-08-05T17:10:19.420Z,4.28
2022-08-05T17:12:51.739Z,3.92
2022-08-05T17:15:19.452Z,4.55
2022-08-05T17:17:48.941Z,4.70
2022-08-05T17:20:21.604Z,3.85
2022-08-05T17:22:55.156Z,3.65
2022-08-05T17:25:33.487Z,3.63
2022-08-05T17:28:05.475Z,4.68
2022-08-05T17:30:31.745Z,3.63
2022-08-05T17:32:58.385Z,3.70
2022-08-05T17:35:24.858Z,3.05
2022-08-05T17:38:00.438Z,3.13
2022-08-05T17:40:31.495Z,2.70
2022-08-05T17:42:57.910Z,2.22
2022-08-05T17:45:24.158Z,2.58
2022-08-05T17:47:54.350Z,2.50
2022-08-05T17:50:27.643Z,2.13
2022-08-05T17:52:56.307Z,1.70
2022-08-05T17:55:22.617Z,2.28
2022-08-05T17:57:53.818Z,1.08
2022-08-05T18:00:20.113Z,2.05
2022-08-05T18:02:54.920Z,1.45
2022-08-05T18:05:21.648Z,1.75
2022-08-05T18:07:48.088Z,1.70
2022-08-05T18:10:21.050Z,1.02
2022-08-05T18:12:47.745Z,1.00
2022-08-05T18:15:13.969Z,1.08
2022-08-05T18:18:01.355Z,0.50
2022-08-05T18:20:29.363Z,0.45
2022-08-05T18:22:58.439Z,0.60
2022-08-05T18:25:33.062Z,0.60
2022-08-05T18:27:59.570Z,0.57
2022-08-05T18:30:28.053Z,0.70
2022-08-05T18:33:00.496Z,0.95
2022-08-05T18:35:49.329Z,0.57
2022-08-05T18:38:13.644Z,0.70
2022-08-05T18:41:57.398Z,0.47
2022-08-05T18:43:31.730Z,0.40
2022-08-05T18:46:04.456Z,0.60
2022-08-05T18:48:33.372Z,0.40
2022-08-05T18:51:01.518Z,0.43
2022-08-05T18:53:28.163Z,0.45
2022-08-05T18:55:54.654Z,0.80
2022-08-05T18:58:27.101Z,0.85
2022-08-05T19:00:55.257Z,0.38
2022-08-05T19:03:53.148Z,0.73
2022-08-05T19:06:18.559Z,0.90
2022-08-05T19:08:48.731Z,0.70
2022-08-05T19:11:15.538Z,0.93
2022-08-05T19:13:48.267Z,0.43
2022-08-05T19:16:28.607Z,0.43
2022-08-05T19:18:56.934Z,1.10
2022-08-05T19:21:23.306Z,0.80
2022-08-05T19:24:05.771Z,0.70
2022-08-05T19:26:35.055Z,0.95
2022-08-05T19:29:12.075Z,0.80
2022-08-05T19:31:44.999Z,1.17
2022-08-05T19:34:18.608Z,0.65
2022-08-05T19:36:45.211Z,1.10
2022-08-05T19:39:13.638Z,0.93
2022-08-05T19:42:07.220Z,0.80
2022-08-05T19:44:30.186Z,0.70
2022-08-05T19:46:56.502Z,1.20
2022-08-05T19:49:24.020Z,2.60
2022-08-05T19:52:13.240Z,1.48
2022-08-05T19:54:37.200Z,1.45
2022-08-05T19:57:08.374Z,1.15
2022-08-05T19:59:55.072Z,1.73
2022-08-05T20:02:22.567Z,1.48
2022-08-05T20:04:49.374Z,1.23
2022-08-05T20:07:45.987Z,1.17
2022-08-05T20:10:04.974Z,1.27
2022-08-05T20:12:39.794Z,1.38
2022-08-05T20:15:14.711Z,1.00
2022-08-05T20:17:40.953Z,1.20
2022-08-05T20:20:10.944Z,2.58
2022-08-05T20:22:37.487Z,1.30
2022-08-05T20:25:07.807Z,1.80
2022-08-05T20:27:41.870Z,1.40
2022-08-05T20:30:08.474Z,1.40
2022-08-05T20:32:34.735Z,1.10
2022-08-05T20:35:02.454Z,1.60
2022-08-05T20:38:07.858Z,1.25
2022-08-05T20:40:14.900Z,1.75
2022-08-05T20:42:44.203Z,1.42
2022-08-05T20:45:10.425Z,1.38
2022-08-05T20:47:40.094Z,1.60
2022-08-05T20:50:07.501Z,1.58
2022-08-05T20:52:34.136Z,1.08
2022-08-05T20:55:56.779Z,1.40
2022-08-05T20:57:46.856Z,1.25
2022-08-05T21:00:41.006Z,1.50
2022-08-05T21:03:01.702Z,2.10
2022-08-05T21:05:37.994Z,1.30
2022-08-05T21:08:14.251Z,1.20
2022-08-05T21:10:40.484Z,2.25
2022-08-05T21:13:26.585Z,1.77
2022-08-05T21:16:01.651Z,1.60
2022-08-05T21:18:29.896Z,2.05
2022-08-05T21:20:56.964Z,1.23
2022-08-05T21:23:23.207Z,2.10
2022-08-05T21:25:50.333Z,1.70
2022-08-05T21:28:18.607Z,1.30
2022-08-05T21:30:45.071Z,1.88
2022-08-05T21:33:22.313Z,1.63
2022-08-05T21:35:58.444Z,1.63
2022-08-05T21:38:25.446Z,1.92
2022-08-05T21:40:51.669Z,1.13
2022-08-05T21:43:24.522Z,1.30
2022-08-05T21:45:56.277Z,1.85
2022-08-05T21:48:23.325Z,1.83
2022-08-05T21:50:53.131Z,1.35
2022-08-05T21:53:20.832Z,1.50
2022-08-05T21:56:05.182Z,1.38
2022-08-05T21:58:32.775Z,1.30
2022-08-05T22:00:59.104Z,2.83
2022-08-05T22:03:51.835Z,1.50
2022-08-05T22:06:11.660Z,1.45
2022-08-05T22:08:37.943Z,2.95
2022-08-05T22:11:09.190Z,1.77
2022-08-05T22:14:06.168Z,2.13
2022-08-05T22:16:41.187Z,1.73
2022-08-05T22:19:56.127Z,1.45
2022-08-05T22:21:55.384Z,1.55
2022-08-05T22:24:40.486Z,2.10
2022-08-05T22:27:10.919Z,2.17
2022-08-05T22:29:40.393Z,1.83
2022-08-05T22:32:10.077Z,1.63
2022-08-05T22:34:36.471Z,1.50
2022-08-05T22:37:03.860Z,1.45
2022-08-05T22:39:33.685Z,1.55
2022-08-05T22:42:11.190Z,2.10
2022-08-05T22:44:39.232Z,1.88
2022-08-05T22:47:06.666Z,2.05
2022-08-05T22:50:21.869Z,2.08
2022-08-05T22:52:30.678Z,1.60
2022-08-05T22:55:00.654Z,2.08
2022-08-05T22:57:26.922Z,1.42
2022-08-05T23:00:00.511Z,1.67
2022-08-05T23:02:30.151Z,1.80
2022-08-05T23:04:56.613Z,1.75
2022-08-05T23:07:23.049Z,2.13
2022-08-05T23:09:58.069Z,1.83
2022-08-05T23:12:28.680Z,1.48
2022-08-05T23:14:55.170Z,1.60
2022-08-05T23:17:24.523Z,1.48
2022-08-05T23:19:59.188Z,1.45
2022-08-05T23:22:27.398Z,2.13
2022-08-05T23:24:54.071Z,1.60
2022-08-05T23:27:20.319Z,2.22
2022-08-05T23:29:48.995Z,1.40
2022-08-05T23:32:16.995Z,1.30
2022-08-05T23:34:49.272Z,1.65
2022-08-05T23:37:17.023Z,1.45
2022-08-05T23:39:53.465Z,1.10
2022-08-05T23:42:23.354Z,0.90
2022-08-05T23:44:54.275Z,1.07
2022-08-05T23:47:20.899Z,1.55
2022-08-05T23:49:51.993Z,1.77
2022-08-05T23:52:21.744Z,1.40
2022-08-05T23:57:17.882Z,1.20
